Cape Dorset Airport
CYTE : rendu visible

Aérodrome :











RETROUVEZ-NOUS SUR...

 
LOGIN :

S'inscrire | Disclaimer

   EN    FR    IT 

 









Légende :    VFR   VFR Marginal   IFR   IFR Intensif   IFR Très Intensif
Visi : 
Plafond : 
>= 8 km
>= 3000ft
5 à 8 km
1000 à 3000 ft
1500m à 5 km
500 à 1000 ft
800 à 1500m
200 à 500 ft
< 800m
< 200 ft
Symboles :   Orages  Brouillard  Fortes neiges  Fortes précipitations  Vent > 20 kt






- Altitude de l'aérodrome : 164 ft
- Code IATA : YTE


CYTE - Cape Dorset

DERNIER METAR :
  • 171155Z AUTO 24004KT 2 1/4SM -SN OVC017 M27/M30 A2945 RMK SLP983

METARs EXPIRÉS :
  • 171111Z AUTO 24006KT 2 1/4SM -SN OVC019 M27/M30 A2945 RMK SLP981
  • 171056Z AUTO 24003KT 5SM BR OVC019 M28/M30 A2944 RMK SLP980
  • 171037Z AUTO 26004KT 9SM BKN021 M28/M31 A2944 RMK SLP979
  • 171000Z AUTO 27003KT 9SM CLR M29/M32 A2943 RMK SLP976
  • 170924Z AUTO 25004KT 9SM SCT017 M28/M30 A2943 RMK SLP974
  • 170921Z AUTO 25003KT 6SM HZ BKN015 M28/M31 A2942 RMK SLP973
  • 170859Z AUTO 26003KT 2 1/4SM -SN BKN013 OVC021 M28/M31 A2943 RMK SLP974

TAF TAF CYTE
Valide du 17 à 07h jusqu'au 17 à 19h UTC


170638Z 1707/1719 28005KT P6SM SCT012
TEMPO 1707/1719 2SM -SN HZ BR BKN012 RMK FCST BASED ON AUTO OBS. NXT FCST BY 171300Z



MET'MAP, la Météo Aéronautique d'un coup d'oeil ! - Copyright ORBIFLY Décembre 2007 - Disclaimer

ORBIFLY MET'MAP TEAM :

Programmation & Développement : Alexandra Zaïnal
Sur une idée originale de : Baudouin d'Aumeries
Assistance à la programmation : Marc-Olivier Méhu
Soutien technique & logistique : Manuel Goepfert

Contact : metmap@orbifly.com




SOURCES & CREDITS :

   NOAA       Earth
Advisory